Kezdőlap
METAR-TAF:

METAR-TAF

Repülőterek :

Mo i Rana, Norvégia

földrajzi szélesség: 66-22N, földrajzi hosszúság: 014-18E, magasság: 7 m

Jelenlegi meteorológiai megfigyelések

A jelentés 21 perccel ezelõtt készült, 20:20 UTC
Különbözõ irányokból fújó szél 2 kt
Hőmérséklet 15°C
Páratartalom 88%
Légköri nyomás 1018 hPa
Látótávolság 10 km, vagy több

METAR: ENRA 192020Z AUTO VRB02KT 9999 BKN014/// BKN017/// 15/13 Q1018

Idő: 22:41 (20:41 UTC)


TAF: hiányzik

Meteorológiai megfigyelések és előrejelzések több, mint 4000 repülőtéren (METAR és TAF jelentéseket).

A térképen piros és sárga pontok jelzik az elérhető meteorológiai állomásokat.

Mozgassa az egeret a pont fölött, hogy megjelenjen az állomás neve.

Azután kattintson az időjárási megfigyelések és előrejelzések megtekintéséhez.

A térkép megváltoztatása: kattintson a fekete keresztel jelölt zöld gombra ráközelítéshez, a vonallal jelölt zöld gombra távolításhoz, vagy a zöld nyilakra a szomszédos térképek eléréséhez.


METAR-TAF: